sensor_id;sensor_type;location;lat;lon;timestamp;temperature;humidity
2651;DHT22;1335;48.180;16.342;2022-09-06T00:00:40;19.10;99.90
2651;DHT22;1335;48.180;16.342;2022-09-06T00:03:07;19.30;99.90
2651;DHT22;1335;48.180;16.342;2022-09-06T00:05:35;18.60;99.90
2651;DHT22;1335;48.180;16.342;2022-09-06T00:08:04;18.90;99.90
2651;DHT22;1335;48.180;16.342;2022-09-06T00:10:32;18.90;99.90
2651;DHT22;1335;48.180;16.342;2022-09-06T00:13:02;18.20;99.90
2651;DHT22;1335;48.180;16.342;2022-09-06T00:15:29;18.10;99.90
2651;DHT22;1335;48.180;16.342;2022-09-06T00:17:57;18.80;99.90
2651;DHT22;1335;48.180;16.342;2022-09-06T00:20:26;18.50;99.90
2651;DHT22;1335;48.180;16.342;2022-09-06T00:22:56;18.60;99.90
2651;DHT22;1335;48.180;16.342;2022-09-06T00:25:24;18.60;99.90
2651;DHT22;1335;48.180;16.342;2022-09-06T00:27:56;18.80;99.90
2651;DHT22;1335;48.180;16.342;2022-09-06T00:30:26;18.40;99.90
2651;DHT22;1335;48.180;16.342;2022-09-06T00:32:54;18.50;99.90
2651;DHT22;1335;48.180;16.342;2022-09-06T00:35:22;18.80;99.90
2651;DHT22;1335;48.180;16.342;2022-09-06T00:37:55;18.60;99.90
2651;DHT22;1335;48.180;16.342;2022-09-06T00:40:22;18.30;99.90
2651;DHT22;1335;48.180;16.342;2022-09-06T00:42:50;18.60;99.90
2651;DHT22;1335;48.180;16.342;2022-09-06T00:45:18;18.10;99.90
2651;DHT22;1335;48.180;16.342;2022-09-06T00:47:47;18.50;99.90
2651;DHT22;1335;48.180;16.342;2022-09-06T00:50:16;19.20;99.90
2651;DHT22;1335;48.180;16.342;2022-09-06T00:52:45;18.70;99.90
2651;DHT22;1335;48.180;16.342;2022-09-06T00:55:16;18.20;99.90
2651;DHT22;1335;48.180;16.342;2022-09-06T00:57:44;18.40;99.90
2651;DHT22;1335;48.180;16.342;2022-09-06T01:00:16;18.80;99.90
2651;DHT22;1335;48.180;16.342;2022-09-06T01:02:46;18.50;99.90
2651;DHT22;1335;48.180;16.342;2022-09-06T01:05:14;18.60;99.90
2651;DHT22;1335;48.180;16.342;2022-09-06T01:07:57;18.70;99.90
2651;DHT22;1335;48.180;16.342;2022-09-06T01:10:41;18.80;99.90
2651;DHT22;1335;48.180;16.342;2022-09-06T01:13:21;17.90;99.90
2651;DHT22;1335;48.180;16.342;2022-09-06T01:15:59;18.50;99.90
2651;DHT22;1335;48.180;16.342;2022-09-06T01:18:37;18.20;99.90
2651;DHT22;1335;48.180;16.342;2022-09-06T01:21:16;18.40;99.90
2651;DHT22;1335;48.180;16.342;2022-09-06T01:27:28;18.20;99.90
2651;DHT22;1335;48.180;16.342;2022-09-06T01:30:02;17.90;99.90
2651;DHT22;1335;48.180;16.342;2022-09-06T01:32:35;18.00;99.90
2651;DHT22;1335;48.180;16.342;2022-09-06T01:35:13;18.20;99.90
2651;DHT22;1335;48.180;16.342;2022-09-06T01:37:41;18.10;99.90
2651;DHT22;1335;48.180;16.342;2022-09-06T01:40:08;18.00;99.90
2651;DHT22;1335;48.180;16.342;2022-09-06T01:42:38;18.00;99.90
2651;DHT22;1335;48.180;16.342;2022-09-06T01:45:08;18.10;99.90
2651;DHT22;1335;48.180;16.342;2022-09-06T01:47:45;17.90;99.90
2651;DHT22;1335;48.180;16.342;2022-09-06T01:50:26;18.10;99.90
2651;DHT22;1335;48.180;16.342;2022-09-06T01:53:03;18.60;99.90
2651;DHT22;1335;48.180;16.342;2022-09-06T01:55:40;17.80;99.90
2651;DHT22;1335;48.180;16.342;2022-09-06T01:58:38;17.80;99.90
2651;DHT22;1335;48.180;16.342;2022-09-06T02:01:24;17.70;99.90
2651;DHT22;1335;48.180;16.342;2022-09-06T02:03:58;18.00;99.90
2651;DHT22;1335;48.180;16.342;2022-09-06T02:06:30;18.10;99.90
2651;DHT22;1335;48.180;16.342;2022-09-06T02:09:02;17.70;99.90
2651;DHT22;1335;48.180;16.342;2022-09-06T02:11:42;17.90;99.90
2651;DHT22;1335;48.180;16.342;2022-09-06T02:14:15;17.70;99.90
2651;DHT22;1335;48.180;16.342;2022-09-06T02:16:45;17.60;99.90
2651;DHT22;1335;48.180;16.342;2022-09-06T02:19:17;17.90;99.90
2651;DHT22;1335;48.180;16.342;2022-09-06T02:21:48;17.50;99.90
2651;DHT22;1335;48.180;16.342;2022-09-06T02:24:19;17.10;99.90
2651;DHT22;1335;48.180;16.342;2022-09-06T02:26:49;17.90;99.90
2651;DHT22;1335;48.180;16.342;2022-09-06T02:29:18;17.50;99.90
2651;DHT22;1335;48.180;16.342;2022-09-06T02:31:48;17.60;99.90
2651;DHT22;1335;48.180;16.342;2022-09-06T02:34:17;18.10;99.90
2651;DHT22;1335;48.180;16.342;2022-09-06T02:36:45;17.70;99.90
2651;DHT22;1335;48.180;16.342;2022-09-06T02:39:13;17.40;99.90
2651;DHT22;1335;48.180;16.342;2022-09-06T02:41:42;17.40;99.90
2651;DHT22;1335;48.180;16.342;2022-09-06T02:44:11;17.70;99.90
2651;DHT22;1335;48.180;16.342;2022-09-06T02:46:39;16.90;99.90
2651;DHT22;1335;48.180;16.342;2022-09-06T02:49:07;17.60;99.90
2651;DHT22;1335;48.180;16.342;2022-09-06T02:51:36;17.30;99.90
2651;DHT22;1335;48.180;16.342;2022-09-06T02:54:04;17.20;99.90
2651;DHT22;1335;48.180;16.342;2022-09-06T02:56:31;17.50;99.90
2651;DHT22;1335;48.180;16.342;2022-09-06T02:58:59;16.80;99.90
2651;DHT22;1335;48.180;16.342;2022-09-06T03:01:26;17.50;99.90
2651;DHT22;1335;48.180;16.342;2022-09-06T03:03:54;17.00;99.90
2651;DHT22;1335;48.180;16.342;2022-09-06T03:06:22;17.00;99.90
2651;DHT22;1335;48.180;16.342;2022-09-06T03:08:49;17.80;99.90
2651;DHT22;1335;48.180;16.342;2022-09-06T03:11:16;17.30;99.90
2651;DHT22;1335;48.180;16.342;2022-09-06T03:13:43;17.30;99.90
2651;DHT22;1335;48.180;16.342;2022-09-06T03:16:10;17.20;99.90
2651;DHT22;1335;48.180;16.342;2022-09-06T03:18:38;16.90;99.90
2651;DHT22;1335;48.180;16.342;2022-09-06T03:21:06;17.50;99.90
2651;DHT22;1335;48.180;16.342;2022-09-06T03:23:34;16.60;99.90
2651;DHT22;1335;48.180;16.342;2022-09-06T03:26:01;17.00;99.90
2651;DHT22;1335;48.180;16.342;2022-09-06T03:28:28;17.50;99.90
2651;DHT22;1335;48.180;16.342;2022-09-06T03:30:55;17.20;99.90
2651;DHT22;1335;48.180;16.342;2022-09-06T03:33:22;17.20;99.90
2651;DHT22;1335;48.180;16.342;2022-09-06T03:35:50;17.10;99.90
2651;DHT22;1335;48.180;16.342;2022-09-06T03:38:20;17.30;99.90
2651;DHT22;1335;48.180;16.342;2022-09-06T03:40:48;17.00;99.90
2651;DHT22;1335;48.180;16.342;2022-09-06T03:43:16;17.00;99.90
2651;DHT22;1335;48.180;16.342;2022-09-06T03:45:44;17.20;99.90
2651;DHT22;1335;48.180;16.342;2022-09-06T03:48:12;17.00;99.90
2651;DHT22;1335;48.180;16.342;2022-09-06T03:50:43;17.20;99.90
2651;DHT22;1335;48.180;16.342;2022-09-06T03:53:10;16.70;99.90
2651;DHT22;1335;48.180;16.342;2022-09-06T03:55:39;17.30;99.90
2651;DHT22;1335;48.180;16.342;2022-09-06T03:58:09;17.00;99.90
2651;DHT22;1335;48.180;16.342;2022-09-06T04:00:36;16.60;99.90
2651;DHT22;1335;48.180;16.342;2022-09-06T04:03:04;16.90;99.90
2651;DHT22;1335;48.180;16.342;2022-09-06T04:05:31;16.80;99.90
2651;DHT22;1335;48.180;16.342;2022-09-06T04:07:58;16.30;99.90
2651;DHT22;1335;48.180;16.342;2022-09-06T04:10:25;16.80;99.90
2651;DHT22;1335;48.180;16.342;2022-09-06T04:12:53;17.60;99.90
2651;DHT22;1335;48.180;16.342;2022-09-06T04:15:21;16.50;99.90
2651;DHT22;1335;48.180;16.342;2022-09-06T04:17:48;16.80;99.90
2651;DHT22;1335;48.180;16.342;2022-09-06T04:20:15;16.80;99.90
2651;DHT22;1335;48.180;16.342;2022-09-06T04:22:43;16.80;99.90
2651;DHT22;1335;48.180;16.342;2022-09-06T04:25:10;16.90;99.90
2651;DHT22;1335;48.180;16.342;2022-09-06T04:27:38;16.80;99.90
2651;DHT22;1335;48.180;16.342;2022-09-06T04:30:08;16.20;99.90
2651;DHT22;1335;48.180;16.342;2022-09-06T04:32:35;16.50;99.90
2651;DHT22;1335;48.180;16.342;2022-09-06T04:35:03;17.60;99.90
2651;DHT22;1335;48.180;16.342;2022-09-06T04:37:31;17.10;99.90
2651;DHT22;1335;48.180;16.342;2022-09-06T04:39:58;17.30;99.90
2651;DHT22;1335;48.180;16.342;2022-09-06T04:42:25;16.90;99.90
2651;DHT22;1335;48.180;16.342;2022-09-06T04:44:52;16.90;99.90
2651;DHT22;1335;48.180;16.342;2022-09-06T04:47:20;17.20;99.90
2651;DHT22;1335;48.180;16.342;2022-09-06T04:49:47;17.20;99.90
2651;DHT22;1335;48.180;16.342;2022-09-06T04:52:15;17.40;99.90
2651;DHT22;1335;48.180;16.342;2022-09-06T04:54:42;17.50;99.90
2651;DHT22;1335;48.180;16.342;2022-09-06T04:57:09;17.20;99.90
2651;DHT22;1335;48.180;16.342;2022-09-06T04:59:36;17.70;99.90
2651;DHT22;1335;48.180;16.342;2022-09-06T05:02:04;17.00;99.90
2651;DHT22;1335;48.180;16.342;2022-09-06T05:04:32;17.80;99.90
2651;DHT22;1335;48.180;16.342;2022-09-06T05:07:00;17.80;99.90
2651;DHT22;1335;48.180;16.342;2022-09-06T05:09:28;18.60;99.90
2651;DHT22;1335;48.180;16.342;2022-09-06T05:11:55;19.50;99.90
2651;DHT22;1335;48.180;16.342;2022-09-06T05:14:22;21.20;99.90
2651;DHT22;1335;48.180;16.342;2022-09-06T05:16:49;22.60;99.90
2651;DHT22;1335;48.180;16.342;2022-09-06T05:19:17;23.70;99.90
2651;DHT22;1335;48.180;16.342;2022-09-06T05:21:46;24.00;99.90
2651;DHT22;1335;48.180;16.342;2022-09-06T05:24:14;25.90;99.90
2651;DHT22;1335;48.180;16.342;2022-09-06T05:26:52;25.30;99.90
2651;DHT22;1335;48.180;16.342;2022-09-06T05:29:19;25.10;99.90
2651;DHT22;1335;48.180;16.342;2022-09-06T05:31:47;26.60;99.90
2651;DHT22;1335;48.180;16.342;2022-09-06T05:34:19;26.60;99.90
2651;DHT22;1335;48.180;16.342;2022-09-06T05:36:51;28.40;99.90
2651;DHT22;1335;48.180;16.342;2022-09-06T05:39:19;29.00;99.90
2651;DHT22;1335;48.180;16.342;2022-09-06T05:42:01;28.80;99.90
2651;DHT22;1335;48.180;16.342;2022-09-06T05:44:32;29.80;99.90
2651;DHT22;1335;48.180;16.342;2022-09-06T05:47:01;29.10;99.90
2651;DHT22;1335;48.180;16.342;2022-09-06T05:49:32;29.60;99.90
2651;DHT22;1335;48.180;16.342;2022-09-06T05:52:01;30.60;99.90
2651;DHT22;1335;48.180;16.342;2022-09-06T05:54:29;30.80;99.90
2651;DHT22;1335;48.180;16.342;2022-09-06T05:59:56;32.10;99.90
2651;DHT22;1335;48.180;16.342;2022-09-06T06:02:26;33.00;99.90
2651;DHT22;1335;48.180;16.342;2022-09-06T06:04:55;33.50;99.90
2651;DHT22;1335;48.180;16.342;2022-09-06T06:07:25;33.30;99.90
2651;DHT22;1335;48.180;16.342;2022-09-06T06:09:53;33.40;99.90
2651;DHT22;1335;48.180;16.342;2022-09-06T06:12:20;30.90;99.90
2651;DHT22;1335;48.180;16.342;2022-09-06T06:14:48;32.20;99.90
2651;DHT22;1335;48.180;16.342;2022-09-06T06:17:15;33.10;99.90
2651;DHT22;1335;48.180;16.342;2022-09-06T06:19:42;34.20;99.90
2651;DHT22;1335;48.180;16.342;2022-09-06T06:22:10;34.40;99.90
2651;DHT22;1335;48.180;16.342;2022-09-06T06:24:38;35.30;99.90
2651;DHT22;1335;48.180;16.342;2022-09-06T06:27:06;31.10;99.90
2651;DHT22;1335;48.180;16.342;2022-09-06T06:29:33;32.20;99.90
2651;DHT22;1335;48.180;16.342;2022-09-06T06:32:02;33.40;99.90
2651;DHT22;1335;48.180;16.342;2022-09-06T06:34:30;33.80;99.90
2651;DHT22;1335;48.180;16.342;2022-09-06T06:36:58;35.30;99.90
2651;DHT22;1335;48.180;16.342;2022-09-06T06:39:25;35.10;99.90
2651;DHT22;1335;48.180;16.342;2022-09-06T06:41:54;36.50;99.90
2651;DHT22;1335;48.180;16.342;2022-09-06T06:44:21;36.30;99.90
2651;DHT22;1335;48.180;16.342;2022-09-06T06:46:49;36.40;99.90
2651;DHT22;1335;48.180;16.342;2022-09-06T06:49:17;36.80;99.90
2651;DHT22;1335;48.180;16.342;2022-09-06T06:51:44;36.40;99.90
2651;DHT22;1335;48.180;16.342;2022-09-06T06:54:12;37.10;99.90
2651;DHT22;1335;48.180;16.342;2022-09-06T06:56:39;35.70;99.90
2651;DHT22;1335;48.180;16.342;2022-09-06T06:59:11;33.20;99.90
2651;DHT22;1335;48.180;16.342;2022-09-06T07:01:38;32.00;99.90
2651;DHT22;1335;48.180;16.342;2022-09-06T07:04:06;35.50;99.90
2651;DHT22;1335;48.180;16.342;2022-09-06T07:06:49;35.90;99.90
2651;DHT22;1335;48.180;16.342;2022-09-06T07:09:17;31.10;99.90
2651;DHT22;1335;48.180;16.342;2022-09-06T07:11:45;33.80;99.90
2651;DHT22;1335;48.180;16.342;2022-09-06T07:14:23;30.40;99.90
2651;DHT22;1335;48.180;16.342;2022-09-06T07:16:50;30.50;99.90
2651;DHT22;1335;48.180;16.342;2022-09-06T07:19:23;34.70;99.90
2651;DHT22;1335;48.180;16.342;2022-09-06T07:21:50;36.70;99.90
2651;DHT22;1335;48.180;16.342;2022-09-06T07:24:17;33.70;99.90
2651;DHT22;1335;48.180;16.342;2022-09-06T07:26:45;31.00;99.90
2651;DHT22;1335;48.180;16.342;2022-09-06T07:29:14;28.40;99.90
2651;DHT22;1335;48.180;16.342;2022-09-06T07:31:42;31.70;99.90
2651;DHT22;1335;48.180;16.342;2022-09-06T07:34:09;36.30;99.90
2651;DHT22;1335;48.180;16.342;2022-09-06T07:36:36;37.60;99.90
2651;DHT22;1335;48.180;16.342;2022-09-06T07:39:03;37.40;99.90
2651;DHT22;1335;48.180;16.342;2022-09-06T07:41:31;39.20;99.90
2651;DHT22;1335;48.180;16.342;2022-09-06T07:43:58;35.30;99.90
2651;DHT22;1335;48.180;16.342;2022-09-06T07:46:27;32.60;99.90
2651;DHT22;1335;48.180;16.342;2022-09-06T07:48:56;34.40;99.90
2651;DHT22;1335;48.180;16.342;2022-09-06T07:51:23;38.10;99.90
2651;DHT22;1335;48.180;16.342;2022-09-06T07:53:51;40.20;99.90
2651;DHT22;1335;48.180;16.342;2022-09-06T07:56:20;40.80;99.90
2651;DHT22;1335;48.180;16.342;2022-09-06T07:58:49;39.80;99.90
2651;DHT22;1335;48.180;16.342;2022-09-06T08:01:27;37.70;99.90
2651;DHT22;1335;48.180;16.342;2022-09-06T08:03:56;38.80;99.90
2651;DHT22;1335;48.180;16.342;2022-09-06T08:06:23;40.10;99.90
2651;DHT22;1335;48.180;16.342;2022-09-06T08:08:50;41.40;99.90
2651;DHT22;1335;48.180;16.342;2022-09-06T08:11:18;38.20;99.90
2651;DHT22;1335;48.180;16.342;2022-09-06T08:13:48;34.40;99.90
2651;DHT22;1335;48.180;16.342;2022-09-06T08:16:16;33.20;99.90
2651;DHT22;1335;48.180;16.342;2022-09-06T08:18:49;36.30;99.90
2651;DHT22;1335;48.180;16.342;2022-09-06T08:21:16;39.00;99.90
2651;DHT22;1335;48.180;16.342;2022-09-06T08:23:45;39.40;99.90
2651;DHT22;1335;48.180;16.342;2022-09-06T08:26:14;39.30;99.90
2651;DHT22;1335;48.180;16.342;2022-09-06T08:28:41;38.30;99.90
2651;DHT22;1335;48.180;16.342;2022-09-06T08:31:10;41.30;99.90
2651;DHT22;1335;48.180;16.342;2022-09-06T08:33:38;42.40;99.90
2651;DHT22;1335;48.180;16.342;2022-09-06T08:36:10;36.80;99.90
2651;DHT22;1335;48.180;16.342;2022-09-06T08:38:37;34.70;99.90
2651;DHT22;1335;48.180;16.342;2022-09-06T08:41:08;38.70;99.90
2651;DHT22;1335;48.180;16.342;2022-09-06T08:43:36;36.40;99.90
2651;DHT22;1335;48.180;16.342;2022-09-06T08:46:05;33.60;99.90
2651;DHT22;1335;48.180;16.342;2022-09-06T08:48:34;35.90;99.90
2651;DHT22;1335;48.180;16.342;2022-09-06T08:51:35;38.10;99.90
2651;DHT22;1335;48.180;16.342;2022-09-06T08:54:10;40.30;99.90
2651;DHT22;1335;48.180;16.342;2022-09-06T08:56:48;38.00;99.90
2651;DHT22;1335;48.180;16.342;2022-09-06T08:59:19;32.30;99.90
2651;DHT22;1335;48.180;16.342;2022-09-06T09:01:55;34.70;99.90
2651;DHT22;1335;48.180;16.342;2022-09-06T09:04:27;31.20;99.90
2651;DHT22;1335;48.180;16.342;2022-09-06T09:06:59;30.80;99.90
2651;DHT22;1335;48.180;16.342;2022-09-06T09:09:30;30.60;99.90
2651;DHT22;1335;48.180;16.342;2022-09-06T09:12:02;31.10;99.90
2651;DHT22;1335;48.180;16.342;2022-09-06T09:14:30;33.20;99.90
2651;DHT22;1335;48.180;16.342;2022-09-06T09:17:05;36.20;99.90
2651;DHT22;1335;48.180;16.342;2022-09-06T09:19:36;37.50;99.90
2651;DHT22;1335;48.180;16.342;2022-09-06T09:22:06;36.50;99.90
2651;DHT22;1335;48.180;16.342;2022-09-06T09:24:34;36.10;99.90
2651;DHT22;1335;48.180;16.342;2022-09-06T09:27:07;33.90;99.90
2651;DHT22;1335;48.180;16.342;2022-09-06T09:30:00;33.70;99.90
2651;DHT22;1335;48.180;16.342;2022-09-06T09:32:33;35.20;99.90
2651;DHT22;1335;48.180;16.342;2022-09-06T09:35:20;39.50;99.90
2651;DHT22;1335;48.180;16.342;2022-09-06T09:37:59;40.60;99.90
2651;DHT22;1335;48.180;16.342;2022-09-06T09:40:33;37.60;99.90
2651;DHT22;1335;48.180;16.342;2022-09-06T09:43:18;40.80;99.90
2651;DHT22;1335;48.180;16.342;2022-09-06T09:46:28;42.20;99.90
2651;DHT22;1335;48.180;16.342;2022-09-06T09:49:08;41.90;99.90
2651;DHT22;1335;48.180;16.342;2022-09-06T09:54:39;42.80;99.90
2651;DHT22;1335;48.180;16.342;2022-09-06T09:57:09;43.20;99.90
2651;DHT22;1335;48.180;16.342;2022-09-06T09:59:41;43.80;99.90
2651;DHT22;1335;48.180;16.342;2022-09-06T10:02:25;42.30;99.90
2651;DHT22;1335;48.180;16.342;2022-09-06T10:05:00;37.40;99.90
2651;DHT22;1335;48.180;16.342;2022-09-06T10:07:33;40.30;99.90
2651;DHT22;1335;48.180;16.342;2022-09-06T10:10:10;41.40;99.90
2651;DHT22;1335;48.180;16.342;2022-09-06T10:12:41;42.10;99.90
2651;DHT22;1335;48.180;16.342;2022-09-06T10:15:32;36.70;99.90
2651;DHT22;1335;48.180;16.342;2022-09-06T10:18:03;35.70;99.90
2651;DHT22;1335;48.180;16.342;2022-09-06T10:20:40;37.30;99.90
2651;DHT22;1335;48.180;16.342;2022-09-06T10:23:16;37.10;99.90
2651;DHT22;1335;48.180;16.342;2022-09-06T10:25:56;36.50;99.90
2651;DHT22;1335;48.180;16.342;2022-09-06T10:28:33;36.30;99.90
2651;DHT22;1335;48.180;16.342;2022-09-06T10:31:28;33.00;99.90
2651;DHT22;1335;48.180;16.342;2022-09-06T10:34:09;32.40;99.90
2651;DHT22;1335;48.180;16.342;2022-09-06T10:36:47;34.60;99.90
2651;DHT22;1335;48.180;16.342;2022-09-06T10:39:34;38.00;99.90
2651;DHT22;1335;48.180;16.342;2022-09-06T10:42:21;39.80;99.90
2651;DHT22;1335;48.180;16.342;2022-09-06T10:45:15;36.00;99.90
2651;DHT22;1335;48.180;16.342;2022-09-06T10:48:02;36.90;99.90
2651;DHT22;1335;48.180;16.342;2022-09-06T10:50:50;39.70;99.90
2651;DHT22;1335;48.180;16.342;2022-09-06T10:53:56;41.20;99.90
2651;DHT22;1335;48.180;16.342;2022-09-06T10:56:48;40.00;99.90
2651;DHT22;1335;48.180;16.342;2022-09-06T10:59:32;40.50;99.90
2651;DHT22;1335;48.180;16.342;2022-09-06T11:02:14;41.50;99.90
2651;DHT22;1335;48.180;16.342;2022-09-06T11:04:48;42.30;99.90
2651;DHT22;1335;48.180;16.342;2022-09-06T11:07:28;41.40;99.90
2651;DHT22;1335;48.180;16.342;2022-09-06T11:09:58;41.60;99.90
2651;DHT22;1335;48.180;16.342;2022-09-06T11:12:35;41.70;99.90
2651;DHT22;1335;48.180;16.342;2022-09-06T11:15:19;41.00;99.90
2651;DHT22;1335;48.180;16.342;2022-09-06T11:18:09;39.90;99.90
2651;DHT22;1335;48.180;16.342;2022-09-06T11:20:49;36.90;99.90
2651;DHT22;1335;48.180;16.342;2022-09-06T11:23:45;39.20;99.90
2651;DHT22;1335;48.180;16.342;2022-09-06T11:26:35;39.90;99.90
2651;DHT22;1335;48.180;16.342;2022-09-06T11:29:21;35.00;99.90
2651;DHT22;1335;48.180;16.342;2022-09-06T11:31:56;35.70;99.90
2651;DHT22;1335;48.180;16.342;2022-09-06T11:34:26;36.80;99.90
2651;DHT22;1335;48.180;16.342;2022-09-06T11:37:04;38.30;99.90
2651;DHT22;1335;48.180;16.342;2022-09-06T11:40:02;37.40;99.90
2651;DHT22;1335;48.180;16.342;2022-09-06T11:43:43;35.30;99.90
2651;DHT22;1335;48.180;16.342;2022-09-06T11:49:46;36.50;99.90
2651;DHT22;1335;48.180;16.342;2022-09-06T11:55:36;32.80;99.90
2651;DHT22;1335;48.180;16.342;2022-09-06T11:58:09;31.70;99.90
2651;DHT22;1335;48.180;16.342;2022-09-06T12:01:34;33.20;99.90
2651;DHT22;1335;48.180;16.342;2022-09-06T12:04:11;35.10;99.90
2651;DHT22;1335;48.180;16.342;2022-09-06T12:07:13;31.00;99.90
2651;DHT22;1335;48.180;16.342;2022-09-06T12:09:45;30.20;99.90
2651;DHT22;1335;48.180;16.342;2022-09-06T12:12:39;30.50;99.90
2651;DHT22;1335;48.180;16.342;2022-09-06T12:15:25;29.20;99.90
2651;DHT22;1335;48.180;16.342;2022-09-06T12:17:56;29.10;99.90
2651;DHT22;1335;48.180;16.342;2022-09-06T12:21:08;31.00;99.90
2651;DHT22;1335;48.180;16.342;2022-09-06T12:39:27;31.30;99.90
2651;DHT22;1335;48.180;16.342;2022-09-06T12:42:12;31.30;99.90
2651;DHT22;1335;48.180;16.342;2022-09-06T12:45:02;32.50;99.90
2651;DHT22;1335;48.180;16.342;2022-09-06T12:51:21;33.20;99.90
2651;DHT22;1335;48.180;16.342;2022-09-06T12:54:20;31.10;99.90
2651;DHT22;1335;48.180;16.342;2022-09-06T13:09:56;33.20;99.90
2651;DHT22;1335;48.180;16.342;2022-09-06T13:12:32;33.10;99.90
2651;DHT22;1335;48.180;16.342;2022-09-06T13:15:10;32.80;99.90
2651;DHT22;1335;48.180;16.342;2022-09-06T13:17:39;32.70;99.90
2651;DHT22;1335;48.180;16.342;2022-09-06T13:20:13;32.70;99.90
2651;DHT22;1335;48.180;16.342;2022-09-06T13:23:08;31.80;99.90
2651;DHT22;1335;48.180;16.342;2022-09-06T13:25:46;31.40;99.90
2651;DHT22;1335;48.180;16.342;2022-09-06T13:28:23;32.60;99.90
2651;DHT22;1335;48.180;16.342;2022-09-06T13:31:04;31.80;99.90
2651;DHT22;1335;48.180;16.342;2022-09-06T13:33:34;31.40;99.90
2651;DHT22;1335;48.180;16.342;2022-09-06T13:36:23;32.30;99.90
2651;DHT22;1335;48.180;16.342;2022-09-06T13:39:35;32.70;99.90
2651;DHT22;1335;48.180;16.342;2022-09-06T13:42:06;32.20;99.90
2651;DHT22;1335;48.180;16.342;2022-09-06T13:44:39;31.60;99.90
2651;DHT22;1335;48.180;16.342;2022-09-06T13:47:27;31.80;99.90
2651;DHT22;1335;48.180;16.342;2022-09-06T13:49:57;31.20;99.90
2651;DHT22;1335;48.180;16.342;2022-09-06T13:52:26;29.60;99.90
2651;DHT22;1335;48.180;16.342;2022-09-06T13:54:59;30.30;99.90
2651;DHT22;1335;48.180;16.342;2022-09-06T13:57:37;30.00;99.90
2651;DHT22;1335;48.180;16.342;2022-09-06T14:00:07;30.20;99.90
2651;DHT22;1335;48.180;16.342;2022-09-06T14:02:40;30.90;99.90
2651;DHT22;1335;48.180;16.342;2022-09-06T14:05:23;30.40;99.90
2651;DHT22;1335;48.180;16.342;2022-09-06T14:08:01;31.10;99.90
2651;DHT22;1335;48.180;16.342;2022-09-06T14:13:48;29.80;99.90
2651;DHT22;1335;48.180;16.342;2022-09-06T14:16:27;30.40;99.90
2651;DHT22;1335;48.180;16.342;2022-09-06T14:19:10;29.10;99.90
2651;DHT22;1335;48.180;16.342;2022-09-06T14:21:42;28.50;99.90
2651;DHT22;1335;48.180;16.342;2022-09-06T14:24:12;27.70;99.90
2651;DHT22;1335;48.180;16.342;2022-09-06T14:26:57;26.90;99.90
2651;DHT22;1335;48.180;16.342;2022-09-06T14:29:33;26.40;99.90
2651;DHT22;1335;48.180;16.342;2022-09-06T14:32:04;26.70;99.90
2651;DHT22;1335;48.180;16.342;2022-09-06T14:34:49;26.90;99.90
2651;DHT22;1335;48.180;16.342;2022-09-06T14:37:28;27.10;99.90
2651;DHT22;1335;48.180;16.342;2022-09-06T14:40:25;27.00;99.90
2651;DHT22;1335;48.180;16.342;2022-09-06T14:43:00;27.80;99.90
2651;DHT22;1335;48.180;16.342;2022-09-06T14:45:46;26.90;99.90
2651;DHT22;1335;48.180;16.342;2022-09-06T14:48:15;27.20;99.90
2651;DHT22;1335;48.180;16.342;2022-09-06T14:50:46;27.90;99.90
2651;DHT22;1335;48.180;16.342;2022-09-06T14:53:15;27.30;99.90
2651;DHT22;1335;48.180;16.342;2022-09-06T14:55:47;27.40;99.90
2651;DHT22;1335;48.180;16.342;2022-09-06T14:58:19;27.20;99.90
2651;DHT22;1335;48.180;16.342;2022-09-06T15:00:51;26.80;99.90
2651;DHT22;1335;48.180;16.342;2022-09-06T15:03:20;26.70;99.90
2651;DHT22;1335;48.180;16.342;2022-09-06T15:05:50;27.60;99.90
2651;DHT22;1335;48.180;16.342;2022-09-06T15:08:27;27.30;99.90
2651;DHT22;1335;48.180;16.342;2022-09-06T15:10:56;26.30;99.90
2651;DHT22;1335;48.180;16.342;2022-09-06T15:13:30;27.60;99.90
2651;DHT22;1335;48.180;16.342;2022-09-06T15:16:01;27.60;99.90
2651;DHT22;1335;48.180;16.342;2022-09-06T15:18:30;27.50;99.90
2651;DHT22;1335;48.180;16.342;2022-09-06T15:21:00;26.90;99.90
2651;DHT22;1335;48.180;16.342;2022-09-06T15:23:43;27.20;99.90
2651;DHT22;1335;48.180;16.342;2022-09-06T15:26:14;26.80;99.90
2651;DHT22;1335;48.180;16.342;2022-09-06T15:28:44;27.80;99.90
2651;DHT22;1335;48.180;16.342;2022-09-06T15:31:26;27.10;99.90
2651;DHT22;1335;48.180;16.342;2022-09-06T15:34:00;27.40;99.90
2651;DHT22;1335;48.180;16.342;2022-09-06T15:36:30;27.10;99.90
2651;DHT22;1335;48.180;16.342;2022-09-06T15:39:00;27.00;99.90
2651;DHT22;1335;48.180;16.342;2022-09-06T15:41:30;26.70;99.90
2651;DHT22;1335;48.180;16.342;2022-09-06T15:44:07;25.80;99.90
2651;DHT22;1335;48.180;16.342;2022-09-06T15:46:52;26.50;99.90
2651;DHT22;1335;48.180;16.342;2022-09-06T15:49:23;26.10;99.90
2651;DHT22;1335;48.180;16.342;2022-09-06T15:51:56;26.20;99.90
2651;DHT22;1335;48.180;16.342;2022-09-06T15:54:31;27.00;99.90
2651;DHT22;1335;48.180;16.342;2022-09-06T15:57:16;26.60;99.90
2651;DHT22;1335;48.180;16.342;2022-09-06T15:59:47;26.00;99.90
2651;DHT22;1335;48.180;16.342;2022-09-06T16:02:17;26.30;99.90
2651;DHT22;1335;48.180;16.342;2022-09-06T16:04:46;26.00;99.90
2651;DHT22;1335;48.180;16.342;2022-09-06T16:07:14;26.40;99.90
2651;DHT22;1335;48.180;16.342;2022-09-06T16:09:42;26.00;99.90
2651;DHT22;1335;48.180;16.342;2022-09-06T16:12:10;25.50;99.90
2651;DHT22;1335;48.180;16.342;2022-09-06T16:14:38;25.30;99.90
2651;DHT22;1335;48.180;16.342;2022-09-06T16:17:11;25.50;99.90
2651;DHT22;1335;48.180;16.342;2022-09-06T16:19:43;25.60;99.90
2651;DHT22;1335;48.180;16.342;2022-09-06T16:22:10;25.90;99.90
2651;DHT22;1335;48.180;16.342;2022-09-06T16:24:39;25.30;99.90
2651;DHT22;1335;48.180;16.342;2022-09-06T16:27:07;25.10;99.90
2651;DHT22;1335;48.180;16.342;2022-09-06T16:29:36;25.40;99.90
2651;DHT22;1335;48.180;16.342;2022-09-06T16:32:04;24.80;99.90
2651;DHT22;1335;48.180;16.342;2022-09-06T16:34:35;25.40;99.90
2651;DHT22;1335;48.180;16.342;2022-09-06T16:37:06;25.10;99.90
2651;DHT22;1335;48.180;16.342;2022-09-06T16:39:39;24.90;99.90
2651;DHT22;1335;48.180;16.342;2022-09-06T16:42:09;25.10;99.90
2651;DHT22;1335;48.180;16.342;2022-09-06T16:44:40;25.30;99.90
2651;DHT22;1335;48.180;16.342;2022-09-06T16:47:13;24.70;99.90
2651;DHT22;1335;48.180;16.342;2022-09-06T16:49:40;24.90;99.90
2651;DHT22;1335;48.180;16.342;2022-09-06T16:52:12;25.10;99.90
2651;DHT22;1335;48.180;16.342;2022-09-06T16:54:53;24.80;99.90
2651;DHT22;1335;48.180;16.342;2022-09-06T16:57:34;25.00;99.90
2651;DHT22;1335;48.180;16.342;2022-09-06T17:00:07;24.90;99.90
2651;DHT22;1335;48.180;16.342;2022-09-06T17:02:38;24.20;99.90
2651;DHT22;1335;48.180;16.342;2022-09-06T17:05:09;24.30;99.90
2651;DHT22;1335;48.180;16.342;2022-09-06T17:07:46;23.90;99.90
2651;DHT22;1335;48.180;16.342;2022-09-06T17:10:18;24.30;99.90
2651;DHT22;1335;48.180;16.342;2022-09-06T17:12:48;23.90;99.90
2651;DHT22;1335;48.180;16.342;2022-09-06T17:15:18;24.00;99.90